sensor_id;sensor_type;location;lat;lon;timestamp;P1;durP1;ratioP1;P2;durP2;ratioP2
39276;SDS011;63149;48.086;-1.606;2023-01-05T06:02:16;7.80;;;1.50;;
39276;SDS011;63149;48.086;-1.606;2023-01-05T06:04:43;7.85;;;1.38;;
39276;SDS011;63149;48.086;-1.606;2023-01-05T06:07:11;6.70;;;1.20;;
39276;SDS011;63149;48.086;-1.606;2023-01-05T06:09:37;7.55;;;1.73;;
39276;SDS011;63149;48.086;-1.606;2023-01-05T06:12:04;6.70;;;1.48;;
39276;SDS011;63149;48.086;-1.606;2023-01-05T06:14:32;9.23;;;1.50;;
39276;SDS011;63149;48.086;-1.606;2023-01-05T06:16:59;6.53;;;1.30;;
39276;SDS011;63149;48.086;-1.606;2023-01-05T06:19:27;8.80;;;2.03;;
39276;SDS011;63149;48.086;-1.606;2023-01-05T06:21:54;9.82;;;1.42;;
39276;SDS011;63149;48.086;-1.606;2023-01-05T06:24:21;7.95;;;1.40;;
39276;SDS011;63149;48.086;-1.606;2023-01-05T06:26:48;7.07;;;1.70;;
39276;SDS011;63149;48.086;-1.606;2023-01-05T06:29:15;6.93;;;2.20;;
39276;SDS011;63149;48.086;-1.606;2023-01-05T06:31:42;7.45;;;2.10;;
39276;SDS011;63149;48.086;-1.606;2023-01-05T06:34:08;8.07;;;1.70;;
39276;SDS011;63149;48.086;-1.606;2023-01-05T06:36:37;11.10;;;2.67;;
39276;SDS011;63149;48.086;-1.606;2023-01-05T06:39:04;10.00;;;2.63;;
39276;SDS011;63149;48.086;-1.606;2023-01-05T06:41:31;11.52;;;2.45;;
39276;SDS011;63149;48.086;-1.606;2023-01-05T06:43:59;8.55;;;1.90;;
39276;SDS011;63149;48.086;-1.606;2023-01-05T06:46:26;11.10;;;2.90;;
39276;SDS011;63149;48.086;-1.606;2023-01-05T06:48:53;10.68;;;1.90;;
39276;SDS011;63149;48.086;-1.606;2023-01-05T06:51:20;8.32;;;2.25;;
39276;SDS011;63149;48.086;-1.606;2023-01-05T06:53:48;20.67;;;3.35;;
39276;SDS011;63149;48.086;-1.606;2023-01-05T06:56:15;11.45;;;2.38;;
39276;SDS011;63149;48.086;-1.606;2023-01-05T06:58:42;14.18;;;2.58;;
39276;SDS011;63149;48.086;-1.606;2023-01-05T07:01:09;12.85;;;2.90;;
39276;SDS011;63149;48.086;-1.606;2023-01-05T07:03:36;11.13;;;2.50;;
39276;SDS011;63149;48.086;-1.606;2023-01-05T07:06:03;16.65;;;2.35;;
39276;SDS011;63149;48.086;-1.606;2023-01-05T07:08:30;15.38;;;3.53;;
39276;SDS011;63149;48.086;-1.606;2023-01-05T07:10:58;10.65;;;2.38;;
39276;SDS011;63149;48.086;-1.606;2023-01-05T07:13:25;12.82;;;2.38;;
39276;SDS011;63149;48.086;-1.606;2023-01-05T07:15:52;12.75;;;2.92;;
39276;SDS011;63149;48.086;-1.606;2023-01-05T07:18:19;24.83;;;3.33;;
39276;SDS011;63149;48.086;-1.606;2023-01-05T07:20:46;17.45;;;2.63;;
39276;SDS011;63149;48.086;-1.606;2023-01-05T07:23:13;20.83;;;3.00;;
39276;SDS011;63149;48.086;-1.606;2023-01-05T07:25:40;16.40;;;2.75;;
39276;SDS011;63149;48.086;-1.606;2023-01-05T07:28:08;21.30;;;3.30;;
39276;SDS011;63149;48.086;-1.606;2023-01-05T07:30:35;12.25;;;2.58;;
39276;SDS011;63149;48.086;-1.606;2023-01-05T07:33:02;23.33;;;3.67;;
39276;SDS011;63149;48.086;-1.606;2023-01-05T07:35:29;13.10;;;2.35;;
39276;SDS011;63149;48.086;-1.606;2023-01-05T07:37:56;22.90;;;4.05;;
39276;SDS011;63149;48.086;-1.606;2023-01-05T07:40:23;22.02;;;3.17;;
39276;SDS011;63149;48.086;-1.606;2023-01-05T07:42:51;18.17;;;3.13;;
39276;SDS011;63149;48.086;-1.606;2023-01-05T07:45:20;15.10;;;3.08;;
39276;SDS011;63149;48.086;-1.606;2023-01-05T07:47:47;24.98;;;3.78;;
39276;SDS011;63149;48.086;-1.606;2023-01-05T07:50:14;18.02;;;2.85;;
39276;SDS011;63149;48.086;-1.606;2023-01-05T07:52:41;15.73;;;3.10;;
39276;SDS011;63149;48.086;-1.606;2023-01-05T07:55:08;16.95;;;3.03;;
39276;SDS011;63149;48.086;-1.606;2023-01-05T07:57:35;19.75;;;3.05;;
39276;SDS011;63149;48.086;-1.606;2023-01-05T08:00:02;19.50;;;2.90;;
39276;SDS011;63149;48.086;-1.606;2023-01-05T08:02:31;11.18;;;2.50;;
39276;SDS011;63149;48.086;-1.606;2023-01-05T08:04:58;17.65;;;2.75;;
39276;SDS011;63149;48.086;-1.606;2023-01-05T08:07:25;16.45;;;3.03;;
39276;SDS011;63149;48.086;-1.606;2023-01-05T08:09:52;21.70;;;3.20;;
39276;SDS011;63149;48.086;-1.606;2023-01-05T08:12:36;15.45;;;3.38;;
39276;SDS011;63149;48.086;-1.606;2023-01-05T08:15:23;19.23;;;3.58;;
39276;SDS011;63149;48.086;-1.606;2023-01-05T08:17:51;20.23;;;3.92;;
39276;SDS011;63149;48.086;-1.606;2023-01-05T08:20:18;32.20;;;5.05;;
39276;SDS011;63149;48.086;-1.606;2023-01-05T08:22:48;22.67;;;3.03;;
39276;SDS011;63149;48.086;-1.606;2023-01-05T08:25:16;22.23;;;3.78;;
39276;SDS011;63149;48.086;-1.606;2023-01-05T08:27:43;18.17;;;3.10;;
39276;SDS011;63149;48.086;-1.606;2023-01-05T08:30:10;13.13;;;3.33;;
39276;SDS011;63149;48.086;-1.606;2023-01-05T08:32:38;17.45;;;3.60;;
39276;SDS011;63149;48.086;-1.606;2023-01-05T08:35:06;15.35;;;3.05;;
39276;SDS011;63149;48.086;-1.606;2023-01-05T08:37:34;22.65;;;4.07;;
39276;SDS011;63149;48.086;-1.606;2023-01-05T08:40:01;27.10;;;4.57;;
39276;SDS011;63149;48.086;-1.606;2023-01-05T08:42:28;22.65;;;4.63;;
39276;SDS011;63149;48.086;-1.606;2023-01-05T08:44:55;28.27;;;4.05;;
39276;SDS011;63149;48.086;-1.606;2023-01-05T08:47:22;18.65;;;3.10;;
39276;SDS011;63149;48.086;-1.606;2023-01-05T08:49:49;21.80;;;3.55;;
39276;SDS011;63149;48.086;-1.606;2023-01-05T08:52:17;16.63;;;2.83;;
39276;SDS011;63149;48.086;-1.606;2023-01-05T08:54:44;17.95;;;3.10;;
39276;SDS011;63149;48.086;-1.606;2023-01-05T08:57:11;22.95;;;3.33;;
39276;SDS011;63149;48.086;-1.606;2023-01-05T08:59:38;23.65;;;3.35;;
39276;SDS011;63149;48.086;-1.606;2023-01-05T09:02:05;26.65;;;4.47;;
39276;SDS011;63149;48.086;-1.606;2023-01-05T09:04:35;24.13;;;3.28;;
39276;SDS011;63149;48.086;-1.606;2023-01-05T09:07:02;24.00;;;3.13;;
39276;SDS011;63149;48.086;-1.606;2023-01-05T09:09:30;25.15;;;3.65;;
39276;SDS011;63149;48.086;-1.606;2023-01-05T09:11:57;21.45;;;3.95;;
39276;SDS011;63149;48.086;-1.606;2023-01-05T09:14:24;29.27;;;3.72;;
39276;SDS011;63149;48.086;-1.606;2023-01-05T09:16:51;24.65;;;4.60;;
39276;SDS011;63149;48.086;-1.606;2023-01-05T09:19:18;34.15;;;4.30;;
39276;SDS011;63149;48.086;-1.606;2023-01-05T09:21:45;17.92;;;3.08;;
39276;SDS011;63149;48.086;-1.606;2023-01-05T09:24:12;13.02;;;3.20;;
39276;SDS011;63149;48.086;-1.606;2023-01-05T09:26:40;33.67;;;4.18;;
39276;SDS011;63149;48.086;-1.606;2023-01-05T09:29:08;23.80;;;3.65;;
39276;SDS011;63149;48.086;-1.606;2023-01-05T09:31:35;21.80;;;3.00;;
39276;SDS011;63149;48.086;-1.606;2023-01-05T09:34:02;29.25;;;3.30;;
39276;SDS011;63149;48.086;-1.606;2023-01-05T09:36:29;19.85;;;3.15;;
39276;SDS011;63149;48.086;-1.606;2023-01-05T09:38:57;17.55;;;2.80;;
39276;SDS011;63149;48.086;-1.606;2023-01-05T09:41:25;23.40;;;3.50;;
39276;SDS011;63149;48.086;-1.606;2023-01-05T09:43:57;16.40;;;2.97;;
39276;SDS011;63149;48.086;-1.606;2023-01-05T09:46:28;19.73;;;3.15;;
39276;SDS011;63149;48.086;-1.606;2023-01-05T09:48:58;24.55;;;4.00;;
39276;SDS011;63149;48.086;-1.606;2023-01-05T09:51:27;24.40;;;3.20;;
39276;SDS011;63149;48.086;-1.606;2023-01-05T09:53:55;17.80;;;2.95;;
39276;SDS011;63149;48.086;-1.606;2023-01-05T09:56:26;19.35;;;3.15;;
39276;SDS011;63149;48.086;-1.606;2023-01-05T09:58:58;15.48;;;2.72;;
39276;SDS011;63149;48.086;-1.606;2023-01-05T10:01:31;19.80;;;2.70;;
39276;SDS011;63149;48.086;-1.606;2023-01-05T10:04:00;12.63;;;2.33;;
39276;SDS011;63149;48.086;-1.606;2023-01-05T10:06:31;22.95;;;2.95;;
39276;SDS011;63149;48.086;-1.606;2023-01-05T10:09:02;18.08;;;2.75;;
39276;SDS011;63149;48.086;-1.606;2023-01-05T10:11:33;16.15;;;2.17;;
39276;SDS011;63149;48.086;-1.606;2023-01-05T10:14:25;13.85;;;2.25;;
39276;SDS011;63149;48.086;-1.606;2023-01-05T10:16:56;16.00;;;2.83;;
39276;SDS011;63149;48.086;-1.606;2023-01-05T10:19:23;17.45;;;2.75;;
39276;SDS011;63149;48.086;-1.606;2023-01-05T10:21:53;19.25;;;3.30;;
39276;SDS011;63149;48.086;-1.606;2023-01-05T10:24:32;18.23;;;2.35;;
39276;SDS011;63149;48.086;-1.606;2023-01-05T10:27:10;22.17;;;2.70;;
39276;SDS011;63149;48.086;-1.606;2023-01-05T10:29:44;15.75;;;2.60;;
39276;SDS011;63149;48.086;-1.606;2023-01-05T10:32:19;19.33;;;2.78;;
39276;SDS011;63149;48.086;-1.606;2023-01-05T10:34:56;17.25;;;3.08;;
39276;SDS011;63149;48.086;-1.606;2023-01-05T10:37:39;15.43;;;2.33;;
39276;SDS011;63149;48.086;-1.606;2023-01-05T10:40:20;14.47;;;2.40;;
39276;SDS011;63149;48.086;-1.606;2023-01-05T10:43:09;19.17;;;3.38;;
39276;SDS011;63149;48.086;-1.606;2023-01-05T10:45:50;19.02;;;3.63;;
39276;SDS011;63149;48.086;-1.606;2023-01-05T10:48:18;15.55;;;2.97;;
39276;SDS011;63149;48.086;-1.606;2023-01-05T10:50:48;17.73;;;3.03;;
39276;SDS011;63149;48.086;-1.606;2023-01-05T10:53:19;15.63;;;3.35;;
39276;SDS011;63149;48.086;-1.606;2023-01-05T10:55:51;12.65;;;2.22;;
39276;SDS011;63149;48.086;-1.606;2023-01-05T10:58:24;18.50;;;2.85;;
39276;SDS011;63149;48.086;-1.606;2023-01-05T11:00:55;16.40;;;2.47;;
39276;SDS011;63149;48.086;-1.606;2023-01-05T11:03:26;13.02;;;2.55;;
39276;SDS011;63149;48.086;-1.606;2023-01-05T11:05:59;21.83;;;3.15;;
39276;SDS011;63149;48.086;-1.606;2023-01-05T11:08:26;13.50;;;2.30;;
39276;SDS011;63149;48.086;-1.606;2023-01-05T11:10:55;16.80;;;2.60;;
39276;SDS011;63149;48.086;-1.606;2023-01-05T11:13:27;30.58;;;3.22;;
39276;SDS011;63149;48.086;-1.606;2023-01-05T11:16:00;19.08;;;2.33;;
39276;SDS011;63149;48.086;-1.606;2023-01-05T11:18:41;17.88;;;2.88;;
39276;SDS011;63149;48.086;-1.606;2023-01-05T11:21:14;17.02;;;2.47;;
39276;SDS011;63149;48.086;-1.606;2023-01-05T11:23:43;20.17;;;2.53;;
39276;SDS011;63149;48.086;-1.606;2023-01-05T11:26:17;13.05;;;2.78;;
39276;SDS011;63149;48.086;-1.606;2023-01-05T11:28:57;18.58;;;2.45;;
39276;SDS011;63149;48.086;-1.606;2023-01-05T11:31:42;15.13;;;2.05;;
39276;SDS011;63149;48.086;-1.606;2023-01-05T11:34:14;13.05;;;2.85;;
39276;SDS011;63149;48.086;-1.606;2023-01-05T11:36:52;12.85;;;2.60;;
39276;SDS011;63149;48.086;-1.606;2023-01-05T11:39:25;11.50;;;2.13;;
39276;SDS011;63149;48.086;-1.606;2023-01-05T11:44:56;13.18;;;3.53;;
39276;SDS011;63149;48.086;-1.606;2023-01-05T11:47:27;10.90;;;2.47;;
39276;SDS011;63149;48.086;-1.606;2023-01-05T11:49:57;17.25;;;2.67;;
39276;SDS011;63149;48.086;-1.606;2023-01-05T11:52:27;14.20;;;2.60;;
39276;SDS011;63149;48.086;-1.606;2023-01-05T11:55:01;10.48;;;1.75;;
39276;SDS011;63149;48.086;-1.606;2023-01-05T11:57:54;13.10;;;2.38;;
39276;SDS011;63149;48.086;-1.606;2023-01-05T12:00:38;14.48;;;3.55;;
39276;SDS011;63149;48.086;-1.606;2023-01-05T12:03:23;14.18;;;2.65;;
39276;SDS011;63149;48.086;-1.606;2023-01-05T12:06:07;11.50;;;2.20;;
39276;SDS011;63149;48.086;-1.606;2023-01-05T12:08:48;17.27;;;3.53;;
39276;SDS011;63149;48.086;-1.606;2023-01-05T12:11:20;12.77;;;2.78;;
39276;SDS011;63149;48.086;-1.606;2023-01-05T12:13:54;9.05;;;2.03;;
39276;SDS011;63149;48.086;-1.606;2023-01-05T12:16:31;12.32;;;2.28;;
39276;SDS011;63149;48.086;-1.606;2023-01-05T12:21:53;11.27;;;2.28;;
39276;SDS011;63149;48.086;-1.606;2023-01-05T12:24:37;12.17;;;3.40;;
39276;SDS011;63149;48.086;-1.606;2023-01-05T12:27:16;7.80;;;1.90;;
39276;SDS011;63149;48.086;-1.606;2023-01-05T12:29:58;12.43;;;2.63;;
39276;SDS011;63149;48.086;-1.606;2023-01-05T12:32:44;10.45;;;2.20;;
39276;SDS011;63149;48.086;-1.606;2023-01-05T12:35:26;9.85;;;1.52;;
39276;SDS011;63149;48.086;-1.606;2023-01-05T12:38:10;8.43;;;1.75;;
39276;SDS011;63149;48.086;-1.606;2023-01-05T12:40:53;13.48;;;2.17;;
39276;SDS011;63149;48.086;-1.606;2023-01-05T12:43:31;13.52;;;2.08;;
39276;SDS011;63149;48.086;-1.606;2023-01-05T12:46:10;21.58;;;3.33;;
39276;SDS011;63149;48.086;-1.606;2023-01-05T12:48:44;9.88;;;2.33;;
39276;SDS011;63149;48.086;-1.606;2023-01-05T12:51:15;9.32;;;2.50;;
39276;SDS011;63149;48.086;-1.606;2023-01-05T12:53:47;8.80;;;2.33;;
39276;SDS011;63149;48.086;-1.606;2023-01-05T12:56:20;14.00;;;2.30;;
39276;SDS011;63149;48.086;-1.606;2023-01-05T12:59:02;10.07;;;2.20;;
39276;SDS011;63149;48.086;-1.606;2023-01-05T13:01:35;15.35;;;2.08;;
39276;SDS011;63149;48.086;-1.606;2023-01-05T13:04:10;7.57;;;1.90;;
39276;SDS011;63149;48.086;-1.606;2023-01-05T13:06:45;12.02;;;2.47;;
39276;SDS011;63149;48.086;-1.606;2023-01-05T13:09:18;8.68;;;2.00;;
39276;SDS011;63149;48.086;-1.606;2023-01-05T13:11:50;9.82;;;2.30;;
39276;SDS011;63149;48.086;-1.606;2023-01-05T13:14:23;12.07;;;2.72;;
39276;SDS011;63149;48.086;-1.606;2023-01-05T13:16:54;6.50;;;1.73;;
39276;SDS011;63149;48.086;-1.606;2023-01-05T13:19:27;14.60;;;3.17;;
39276;SDS011;63149;48.086;-1.606;2023-01-05T13:21:57;12.40;;;2.20;;
39276;SDS011;63149;48.086;-1.606;2023-01-05T13:24:30;12.43;;;4.57;;
39276;SDS011;63149;48.086;-1.606;2023-01-05T13:27:01;7.95;;;1.98;;
39276;SDS011;63149;48.086;-1.606;2023-01-05T13:29:29;9.93;;;1.77;;
39276;SDS011;63149;48.086;-1.606;2023-01-05T13:32:03;6.93;;;1.60;;
39276;SDS011;63149;48.086;-1.606;2023-01-05T13:34:53;6.88;;;1.58;;
39276;SDS011;63149;48.086;-1.606;2023-01-05T13:38:06;9.00;;;1.70;;
39276;SDS011;63149;48.086;-1.606;2023-01-05T13:41:07;8.13;;;1.65;;
39276;SDS011;63149;48.086;-1.606;2023-01-05T13:43:58;9.10;;;1.75;;
39276;SDS011;63149;48.086;-1.606;2023-01-05T13:46:50;11.20;;;2.15;;
39276;SDS011;63149;48.086;-1.606;2023-01-05T13:49:37;9.80;;;1.88;;
39276;SDS011;63149;48.086;-1.606;2023-01-05T13:52:30;8.05;;;1.40;;
39276;SDS011;63149;48.086;-1.606;2023-01-05T13:55:09;10.93;;;2.20;;
39276;SDS011;63149;48.086;-1.606;2023-01-05T13:57:39;14.43;;;2.75;;
39276;SDS011;63149;48.086;-1.606;2023-01-05T14:00:18;5.45;;;1.52;;
39276;SDS011;63149;48.086;-1.606;2023-01-05T14:02:54;11.30;;;2.22;;
39276;SDS011;63149;48.086;-1.606;2023-01-05T14:05:31;5.80;;;1.58;;
39276;SDS011;63149;48.086;-1.606;2023-01-05T14:08:02;9.35;;;2.85;;
39276;SDS011;63149;48.086;-1.606;2023-01-05T14:10:33;14.18;;;1.80;;
39276;SDS011;63149;48.086;-1.606;2023-01-05T14:13:00;4.05;;;1.30;;
39276;SDS011;63149;48.086;-1.606;2023-01-05T14:15:35;12.95;;;1.60;;
39276;SDS011;63149;48.086;-1.606;2023-01-05T14:18:06;7.88;;;1.60;;
39276;SDS011;63149;48.086;-1.606;2023-01-05T14:20:35;13.55;;;1.63;;
39276;SDS011;63149;48.086;-1.606;2023-01-05T14:26:14;9.10;;;1.80;;
39276;SDS011;63149;48.086;-1.606;2023-01-05T14:28:42;5.55;;;1.55;;
39276;SDS011;63149;48.086;-1.606;2023-01-05T14:34:14;10.65;;;1.60;;
39276;SDS011;63149;48.086;-1.606;2023-01-05T14:36:43;9.48;;;1.48;;
39276;SDS011;63149;48.086;-1.606;2023-01-05T14:39:24;8.65;;;1.40;;
39276;SDS011;63149;48.086;-1.606;2023-01-05T14:41:58;11.10;;;1.50;;
39276;SDS011;63149;48.086;-1.606;2023-01-05T14:44:32;6.80;;;1.60;;
39276;SDS011;63149;48.086;-1.606;2023-01-05T14:47:02;7.60;;;1.13;;
39276;SDS011;63149;48.086;-1.606;2023-01-05T14:49:32;8.65;;;1.33;;
39276;SDS011;63149;48.086;-1.606;2023-01-05T14:52:03;6.25;;;1.73;;
39276;SDS011;63149;48.086;-1.606;2023-01-05T14:54:35;7.75;;;1.50;;
39276;SDS011;63149;48.086;-1.606;2023-01-05T15:00:17;10.57;;;1.42;;
39276;SDS011;63149;48.086;-1.606;2023-01-05T15:02:54;7.70;;;1.20;;
39276;SDS011;63149;48.086;-1.606;2023-01-05T15:05:26;3.20;;;1.42;;
39276;SDS011;63149;48.086;-1.606;2023-01-05T15:07:58;6.55;;;1.08;;
39276;SDS011;63149;48.086;-1.606;2023-01-05T15:10:44;7.13;;;1.13;;
39276;SDS011;63149;48.086;-1.606;2023-01-05T15:13:28;3.53;;;0.73;;
39276;SDS011;63149;48.086;-1.606;2023-01-05T15:16:08;2.30;;;1.30;;
39276;SDS011;63149;48.086;-1.606;2023-01-05T15:19:00;8.82;;;1.88;;
39276;SDS011;63149;48.086;-1.606;2023-01-05T15:21:58;9.15;;;1.30;;
39276;SDS011;63149;48.086;-1.606;2023-01-05T15:27:26;5.13;;;1.90;;
39276;SDS011;63149;48.086;-1.606;2023-01-05T15:33:14;6.80;;;1.10;;
39276;SDS011;63149;48.086;-1.606;2023-01-05T15:35:46;7.20;;;1.10;;
39276;SDS011;63149;48.086;-1.606;2023-01-05T15:38:19;5.78;;;0.90;;
39276;SDS011;63149;48.086;-1.606;2023-01-05T15:40:48;3.50;;;1.05;;
39276;SDS011;63149;48.086;-1.606;2023-01-05T15:43:22;2.63;;;0.80;;
39276;SDS011;63149;48.086;-1.606;2023-01-05T15:45:51;4.38;;;0.68;;
39276;SDS011;63149;48.086;-1.606;2023-01-05T15:48:20;9.38;;;0.90;;
39276;SDS011;63149;48.086;-1.606;2023-01-05T15:50:53;4.95;;;1.05;;
39276;SDS011;63149;48.086;-1.606;2023-01-05T15:53:23;4.28;;;1.42;;
39276;SDS011;63149;48.086;-1.606;2023-01-05T15:55:52;4.63;;;1.15;;
39276;SDS011;63149;48.086;-1.606;2023-01-05T15:58:19;3.70;;;0.73;;
39276;SDS011;63149;48.086;-1.606;2023-01-05T16:00:59;3.65;;;0.82;;
39276;SDS011;63149;48.086;-1.606;2023-01-05T16:03:29;1.67;;;0.98;;
39276;SDS011;63149;48.086;-1.606;2023-01-05T16:05:57;5.13;;;0.95;;
39276;SDS011;63149;48.086;-1.606;2023-01-05T16:08:26;5.57;;;0.70;;
39276;SDS011;63149;48.086;-1.606;2023-01-05T16:10:55;0.95;;;0.40;;
39276;SDS011;63149;48.086;-1.606;2023-01-05T16:13:27;2.88;;;0.80;;
39276;SDS011;63149;48.086;-1.606;2023-01-05T16:15:56;3.13;;;0.68;;
39276;SDS011;63149;48.086;-1.606;2023-01-05T16:18:27;2.63;;;0.60;;
39276;SDS011;63149;48.086;-1.606;2023-01-05T16:21:09;3.75;;;0.90;;
39276;SDS011;63149;48.086;-1.606;2023-01-05T16:23:38;6.93;;;1.58;;
39276;SDS011;63149;48.086;-1.606;2023-01-05T16:28:38;4.88;;;0.70;;
39276;SDS011;63149;48.086;-1.606;2023-01-05T16:31:10;3.03;;;0.90;;
39276;SDS011;63149;48.086;-1.606;2023-01-05T16:33:40;1.95;;;0.80;;
39276;SDS011;63149;48.086;-1.606;2023-01-05T16:36:08;4.20;;;1.30;;
39276;SDS011;63149;48.086;-1.606;2023-01-05T16:38:38;1.08;;;0.70;;
39276;SDS011;63149;48.086;-1.606;2023-01-05T16:41:09;3.13;;;0.85;;
39276;SDS011;63149;48.086;-1.606;2023-01-05T16:43:48;4.22;;;0.95;;
39276;SDS011;63149;48.086;-1.606;2023-01-05T16:46:30;3.22;;;1.55;;
39276;SDS011;63149;48.086;-1.606;2023-01-05T16:49:22;4.38;;;1.30;;
39276;SDS011;63149;48.086;-1.606;2023-01-05T16:52:04;3.40;;;1.25;;
39276;SDS011;63149;48.086;-1.606;2023-01-05T16:54:33;5.45;;;1.60;;
39276;SDS011;63149;48.086;-1.606;2023-01-05T16:57:04;3.70;;;1.43;;
39276;SDS011;63149;48.086;-1.606;2023-01-05T16:59:48;4.35;;;1.60;;
39276;SDS011;63149;48.086;-1.606;2023-01-05T17:02:30;4.93;;;1.48;;
39276;SDS011;63149;48.086;-1.606;2023-01-05T17:05:05;8.57;;;2.20;;
39276;SDS011;63149;48.086;-1.606;2023-01-05T17:07:32;6.57;;;1.98;;
39276;SDS011;63149;48.086;-1.606;2023-01-05T17:10:02;7.55;;;1.63;;
39276;SDS011;63149;48.086;-1.606;2023-01-05T17:12:30;8.35;;;2.00;;
39276;SDS011;63149;48.086;-1.606;2023-01-05T17:14:57;4.97;;;2.20;;
39276;SDS011;63149;48.086;-1.606;2023-01-05T17:17:27;2.83;;;1.30;;
39276;SDS011;63149;48.086;-1.606;2023-01-05T17:19:54;5.68;;;1.60;;
39276;SDS011;63149;48.086;-1.606;2023-01-05T17:22:22;4.50;;;1.50;;
39276;SDS011;63149;48.086;-1.606;2023-01-05T17:24:49;4.30;;;1.77;;
39276;SDS011;63149;48.086;-1.606;2023-01-05T17:27:17;4.82;;;1.48;;
39276;SDS011;63149;48.086;-1.606;2023-01-05T17:29:44;5.78;;;1.55;;
39276;SDS011;63149;48.086;-1.606;2023-01-05T17:32:11;5.97;;;1.30;;
39276;SDS011;63149;48.086;-1.606;2023-01-05T17:34:38;2.55;;;1.05;;
39276;SDS011;63149;48.086;-1.606;2023-01-05T17:37:06;2.97;;;1.10;;
39276;SDS011;63149;48.086;-1.606;2023-01-05T17:39:40;3.53;;;1.20;;
39276;SDS011;63149;48.086;-1.606;2023-01-05T17:42:07;8.30;;;1.40;;
39276;SDS011;63149;48.086;-1.606;2023-01-05T17:44:51;4.63;;;1.45;;
39276;SDS011;63149;48.086;-1.606;2023-01-05T17:47:18;7.80;;;2.22;;
39276;SDS011;63149;48.086;-1.606;2023-01-05T17:49:45;4.97;;;2.50;;
39276;SDS011;63149;48.086;-1.606;2023-01-05T17:52:12;4.53;;;1.30;;
39276;SDS011;63149;48.086;-1.606;2023-01-05T17:54:40;9.15;;;1.88;;
39276;SDS011;63149;48.086;-1.606;2023-01-05T17:57:08;7.00;;;1.75;;
39276;SDS011;63149;48.086;-1.606;2023-01-05T17:59:36;4.78;;;1.40;;
39276;SDS011;63149;48.086;-1.606;2023-01-05T18:02:03;5.65;;;2.10;;
39276;SDS011;63149;48.086;-1.606;2023-01-05T18:04:30;9.52;;;3.40;;
39276;SDS011;63149;48.086;-1.606;2023-01-05T18:06:57;5.28;;;2.00;;
39276;SDS011;63149;48.086;-1.606;2023-01-05T18:09:25;5.57;;;1.60;;
39276;SDS011;63149;48.086;-1.606;2023-01-05T18:11:53;5.95;;;1.88;;
39276;SDS011;63149;48.086;-1.606;2023-01-05T18:14:20;6.13;;;3.05;;
39276;SDS011;63149;48.086;-1.606;2023-01-05T18:16:47;8.82;;;3.75;;
39276;SDS011;63149;48.086;-1.606;2023-01-05T18:19:14;18.27;;;9.40;;
39276;SDS011;63149;48.086;-1.606;2023-01-05T18:21:41;7.30;;;2.25;;
39276;SDS011;63149;48.086;-1.606;2023-01-05T18:24:08;5.80;;;2.35;;
39276;SDS011;63149;48.086;-1.606;2023-01-05T18:26:35;13.15;;;4.05;;
39276;SDS011;63149;48.086;-1.606;2023-01-05T18:29:03;11.40;;;3.10;;
39276;SDS011;63149;48.086;-1.606;2023-01-05T18:31:30;8.15;;;2.13;;
39276;SDS011;63149;48.086;-1.606;2023-01-05T18:33:57;10.05;;;3.47;;
39276;SDS011;63149;48.086;-1.606;2023-01-05T18:36:24;4.88;;;2.53;;
39276;SDS011;63149;48.086;-1.606;2023-01-05T18:38:51;8.77;;;2.10;;
39276;SDS011;63149;48.086;-1.606;2023-01-05T18:41:21;4.97;;;2.35;;
39276;SDS011;63149;48.086;-1.606;2023-01-05T18:43:49;3.95;;;2.60;;
39276;SDS011;63149;48.086;-1.606;2023-01-05T18:46:17;8.57;;;2.70;;
39276;SDS011;63149;48.086;-1.606;2023-01-05T18:48:47;4.68;;;1.95;;
39276;SDS011;63149;48.086;-1.606;2023-01-05T18:51:14;3.22;;;2.30;;
39276;SDS011;63149;48.086;-1.606;2023-01-05T18:53:42;7.35;;;2.22;;
39276;SDS011;63149;48.086;-1.606;2023-01-05T18:56:09;8.27;;;1.92;;
39276;SDS011;63149;48.086;-1.606;2023-01-05T18:58:38;5.75;;;2.10;;
39276;SDS011;63149;48.086;-1.606;2023-01-05T19:01:08;8.65;;;2.40;;
39276;SDS011;63149;48.086;-1.606;2023-01-05T19:03:37;9.45;;;3.28;;
39276;SDS011;63149;48.086;-1.606;2023-01-05T19:06:05;4.72;;;3.40;;
39276;SDS011;63149;48.086;-1.606;2023-01-05T19:08:33;7.07;;;3.17;;
39276;SDS011;63149;48.086;-1.606;2023-01-05T19:11:08;9.30;;;2.75;;
39276;SDS011;63149;48.086;-1.606;2023-01-05T19:13:36;7.72;;;2.63;;
39276;SDS011;63149;48.086;-1.606;2023-01-05T19:16:04;5.28;;;2.47;;
39276;SDS011;63149;48.086;-1.606;2023-01-05T19:18:31;6.97;;;2.85;;
39276;SDS011;63149;48.086;-1.606;2023-01-05T19:21:00;7.10;;;2.60;;
39276;SDS011;63149;48.086;-1.606;2023-01-05T19:23:27;9.40;;;2.92;;
39276;SDS011;63149;48.086;-1.606;2023-01-05T19:25:58;4.07;;;2.63;;
39276;SDS011;63149;48.086;-1.606;2023-01-05T19:28:27;11.80;;;3.13;;
39276;SDS011;63149;48.086;-1.606;2023-01-05T19:31:01;10.18;;;3.20;;
39276;SDS011;63149;48.086;-1.606;2023-01-05T19:33:28;9.75;;;2.78;;
39276;SDS011;63149;48.086;-1.606;2023-01-05T19:36:00;6.40;;;2.92;;
39276;SDS011;63149;48.086;-1.606;2023-01-05T19:38:29;5.88;;;2.15;;
39276;SDS011;63149;48.086;-1.606;2023-01-05T19:41:00;7.70;;;2.42;;
39276;SDS011;63149;48.086;-1.606;2023-01-05T19:43:28;5.07;;;2.75;;
39276;SDS011;63149;48.086;-1.606;2023-01-05T19:45:56;7.88;;;3.20;;
39276;SDS011;63149;48.086;-1.606;2023-01-05T19:48:24;6.07;;;3.25;;
39276;SDS011;63149;48.086;-1.606;2023-01-05T19:50:57;6.93;;;3.00;;
39276;SDS011;63149;48.086;-1.606;2023-01-05T19:53:27;7.25;;;2.70;;
39276;SDS011;63149;48.086;-1.606;2023-01-05T19:55:54;8.20;;;2.75;;
39276;SDS011;63149;48.086;-1.606;2023-01-05T19:58:21;5.25;;;3.67;;
39276;SDS011;63149;48.086;-1.606;2023-01-05T20:00:48;13.63;;;4.68;;
39276;SDS011;63149;48.086;-1.606;2023-01-05T20:03:15;8.70;;;2.90;;
39276;SDS011;63149;48.086;-1.606;2023-01-05T20:05:42;5.80;;;2.17;;
39276;SDS011;63149;48.086;-1.606;2023-01-05T20:08:09;4.32;;;2.42;;
39276;SDS011;63149;48.086;-1.606;2023-01-05T20:10:38;6.32;;;2.20;;
39276;SDS011;63149;48.086;-1.606;2023-01-05T20:13:05;4.85;;;2.35;;
39276;SDS011;63149;48.086;-1.606;2023-01-05T20:15:33;4.95;;;2.67;;
39276;SDS011;63149;48.086;-1.606;2023-01-05T20:18:01;7.45;;;2.70;;
39276;SDS011;63149;48.086;-1.606;2023-01-05T20:20:28;5.53;;;2.45;;
39276;SDS011;63149;48.086;-1.606;2023-01-05T20:22:55;8.75;;;2.35;;
39276;SDS011;63149;48.086;-1.606;2023-01-05T20:25:22;3.55;;;2.30;;
39276;SDS011;63149;48.086;-1.606;2023-01-05T20:27:50;8.02;;;2.40;;
39276;SDS011;63149;48.086;-1.606;2023-01-05T20:30:17;7.30;;;2.53;;
39276;SDS011;63149;48.086;-1.606;2023-01-05T20:32:44;4.75;;;1.77;;
39276;SDS011;63149;48.086;-1.606;2023-01-05T20:35:11;3.42;;;2.22;;
39276;SDS011;63149;48.086;-1.606;2023-01-05T20:37:39;6.70;;;2.53;;
39276;SDS011;63149;48.086;-1.606;2023-01-05T20:40:07;4.90;;;2.15;;
39276;SDS011;63149;48.086;-1.606;2023-01-05T20:42:34;6.18;;;2.05;;
39276;SDS011;63149;48.086;-1.606;2023-01-05T20:45:04;4.82;;;1.77;;
39276;SDS011;63149;48.086;-1.606;2023-01-05T20:47:32;8.85;;;3.28;;
39276;SDS011;63149;48.086;-1.606;2023-01-05T20:49:59;5.70;;;1.90;;
39276;SDS011;63149;48.086;-1.606;2023-01-05T20:52:26;7.25;;;3.75;;
39276;SDS011;63149;48.086;-1.606;2023-01-05T20:54:52;14.27;;;8.77;;
39276;SDS011;63149;48.086;-1.606;2023-01-05T20:57:21;7.72;;;3.03;;
39276;SDS011;63149;48.086;-1.606;2023-01-05T20:59:48;7.57;;;2.85;;
39276;SDS011;63149;48.086;-1.606;2023-01-05T21:02:16;6.82;;;3.67;;
39276;SDS011;63149;48.086;-1.606;2023-01-05T21:04:43;9.88;;;1.55;;
39276;SDS011;63149;48.086;-1.606;2023-01-05T21:07:10;7.45;;;2.47;;
39276;SDS011;63149;48.086;-1.606;2023-01-05T21:09:37;5.60;;;2.58;;
39276;SDS011;63149;48.086;-1.606;2023-01-05T21:12:06;12.10;;;5.53;;
39276;SDS011;63149;48.086;-1.606;2023-01-05T21:14:33;4.15;;;2.47;;
39276;SDS011;63149;48.086;-1.606;2023-01-05T21:17:00;6.97;;;2.47;;